Pagrindinis puslapis
METAR-TAF:

METAR-TAF

Oro uostai :

Kbely

Praha, Čekija

platuma: 50-07-17N, ilguma: 14-32-37E, Aukštis: 286 m

Dabartinis oras

Ataskaita buvo paskelbta 21 minutes, ne 20:00 UTC
Vėjas 3 kt iš Šiaurės Rytų
Temperatūra 10°C
Drėgmė 62%
Slėgis 1027 hPa
Matomumas 10 km arba daugiau
nėra debesų žemiau 1500 m ir nėra kamuolinių lietaus debesų

METAR: LKKB 202000Z 04003KT CAVOK 10/03 Q1027 NOSIG

Laikas: 22:21 (20:21 UTC)

Prognozė

Ataskaita buvo paskelbta 3 valandos ir 21 minutes, ne 17:00 UTC
Prognozė galioja nuo 20 metu 18 UTC su 21 metu 18 UTC
Vėjas 2 kt nuo kintamojo kryptimis
Matomumas 10 km arba daugiau
nėra debesų žemiau 1500 m ir nėra kamuolinių lietaus debesų
Tapsmas
nuo 21 metu 08 UTC su 21 metu 10 UTC
Vėjas 5 kt iš Rytų/Pietryčių

TAF: LKKB 201700Z 2018/2118 VRB02KT CAVOK BECMG 2108/2110 12005KT

Orai ataskaitas ir orų prognozės (METAR, TAF).

turimą stotys yra geltonos ir raudonos taškus žemėlapyje.

Perkelti pele per norėdami pamatyti stoties vardą.

Tada spustelėkite, norėdami matyti oro stebėjimo ir prognozės.

Norėdami pakeisti žemėlapį: spustelėkite ant žalios mygtukų su juodo kryžiaus žemyn,; žalią mygtuką su brūkšneliu, jei norite nutolinti; arba žalių rodyklių gretimoms žemėlapius.


METAR-TAF: